Time;durP1;ratioP1;P1;durP2;ratioP2;P2;SDS_P1;SDS_P2;PMS_P1;PMS_P2;Temp;Humidity;BMP_temperature;BMP_pressure;BME280_temperature;BME280_humidity;BME280_pressure;Samples;Min_cycle;Max_cycle;Signal;HPM_P1;HPM_P2
2021/10/30 00:02:20;;;;;;;5.13;2.83;;;;;;;13.78;55.21;96571.06;4975692;28;20128;-82
2021/10/30 00:04:46;;;;;;;5.05;2.72;;;;;;;13.85;55.21;96583.81;4975994;28;20396;-82
2021/10/30 00:07:15;;;;;;;4.88;2.90;;;;;;;13.92;55.18;96578.25;4975612;28;20411;-82
2021/10/30 00:09:41;;;;;;;4.07;2.83;;;;;;;13.89;54.67;96571.72;4956294;28;20408;-82
2021/10/30 00:12:07;;;;;;;5.95;2.60;;;;;;;14.01;54.71;96579.94;4972974;28;20093;-82
2021/10/30 00:14:32;;;;;;;3.90;2.55;;;;;;;14.07;54.68;96566.78;4962480;28;20030;-82
2021/10/30 00:16:57;;;;;;;4.95;2.50;;;;;;;14.16;54.24;96562.50;4992113;28;20083;-82
2021/10/30 00:19:23;;;;;;;4.57;2.63;;;;;;;14.27;53.77;96563.13;4976366;28;20022;-82
2021/10/30 00:21:52;;;;;;;4.10;2.90;;;;;;;14.42;53.68;96562.94;4975423;28;20501;-82
2021/10/30 00:24:18;;;;;;;3.33;2.45;;;;;;;14.52;52.78;96560.16;4976580;28;20034;-82
2021/10/30 00:26:43;;;;;;;4.25;2.42;;;;;;;14.58;52.54;96563.47;4975832;28;20365;-82
2021/10/30 00:29:09;;;;;;;3.83;2.53;;;;;;;14.64;52.46;96554.53;4944078;28;20451;-82
2021/10/30 00:31:34;;;;;;;4.28;2.95;;;;;;;14.53;52.73;96555.69;4939682;28;20030;-82
2021/10/30 00:34:00;;;;;;;4.70;2.92;;;;;;;14.38;52.66;96549.63;4972296;28;20153;-82
2021/10/30 00:36:25;;;;;;;4.05;2.70;;;;;;;14.33;52.97;96535.84;4956537;28;20465;-82
2021/10/30 00:38:50;;;;;;;3.83;2.90;;;;;;;14.31;53.23;96549.22;4940454;28;20030;-82
2021/10/30 00:41:17;;;;;;;4.05;2.80;;;;;;;14.21;53.34;96538.88;4990246;28;20477;-81
2021/10/30 00:43:44;;;;;;;3.15;2.40;;;;;;;14.09;53.86;96533.28;4992144;28;20748;-82
2021/10/30 00:46:09;;;;;;;5.35;2.90;;;;;;;14.15;53.71;96529.53;4975396;28;20022;-82
2021/10/30 00:48:35;;;;;;;4.40;2.53;;;;;;;14.05;54.49;96526.00;4991441;28;20032;-82
2021/10/30 00:51:03;;;;;;;5.68;2.65;;;;;;;13.81;54.98;96531.28;4991339;28;20029;-82
2021/10/30 00:53:31;;;;;;;4.05;2.25;;;;;;;13.83;54.85;96526.53;4983415;28;20037;-81
2021/10/30 00:56:01;;;;;;;3.55;2.45;;;;;;;13.77;55.01;96537.34;4972452;28;20034;-81
2021/10/30 00:58:33;;;;;;;9.35;2.97;;;;;;;13.76;54.80;96536.56;4977778;28;20038;-82
2021/10/30 01:00:59;;;;;;;4.50;2.63;;;;;;;13.85;54.88;96528.88;4958630;28;20057;-82
2021/10/30 01:03:25;;;;;;;4.93;3.03;;;;;;;13.90;54.49;96518.34;4991740;28;20402;-82
2021/10/30 01:05:51;;;;;;;4.00;2.78;;;;;;;13.92;54.41;96513.59;4975623;28;20125;-82
2021/10/30 01:08:18;;;;;;;4.68;3.22;;;;;;;13.97;54.32;96516.16;4975114;28;20061;-82
2021/10/30 01:10:45;;;;;;;5.57;2.53;;;;;;;14.01;54.09;96517.13;4974866;28;20500;-82
2021/10/30 01:13:11;;;;;;;4.18;2.70;;;;;;;14.10;53.88;96519.88;4975252;28;20421;-82
2021/10/30 01:15:36;;;;;;;4.90;2.80;;;;;;;14.02;53.98;96520.53;4991165;28;20061;-82
2021/10/30 01:18:01;;;;;;;4.57;2.97;;;;;;;13.81;54.72;96522.63;4991095;28;20029;-82
2021/10/30 01:20:27;;;;;;;5.15;2.70;;;;;;;13.67;54.81;96517.28;4974595;28;20128;-82
2021/10/30 01:23:00;;;;;;;5.13;2.50;;;;;;;13.46;55.25;96519.38;4991092;28;20120;-82
2021/10/30 01:25:25;;;;;;;3.90;2.60;;;;;;;13.51;55.48;96505.47;4991177;28;20034;-82
2021/10/30 01:27:52;;;;;;;4.97;2.20;;;;;;;13.50;55.21;96509.91;5007641;28;20334;-82
2021/10/30 01:30:19;;;;;;;3.88;2.50;;;;;;;13.47;55.13;96497.41;4990642;28;20535;-82
2021/10/30 01:32:59;;;;;;;3.60;2.40;;;;;;;13.36;55.41;96504.56;4991326;28;20429;-82
2021/10/30 01:35:41;;;;;;;4.72;2.20;;;;;;;13.36;55.12;96503.81;4987796;28;20378;-82
2021/10/30 01:38:08;;;;;;;4.18;2.30;;;;;;;13.55;54.75;96496.00;4955179;28;20034;-82
2021/10/30 01:40:42;;;;;;;2.80;2.10;;;;;;;13.48;55.02;96498.94;4971128;28;20036;-83
2021/10/30 01:43:08;;;;;;;6.10;2.95;;;;;;;13.57;54.77;96492.06;4955815;28;20093;-83
2021/10/30 01:45:34;;;;;;;3.22;2.30;;;;;;;13.62;54.30;96489.38;4984894;28;20484;-82
2021/10/30 01:47:59;;;;;;;3.40;2.25;;;;;;;13.67;54.28;96488.53;4958419;28;20021;-83
2021/10/30 01:50:25;;;;;;;4.68;2.22;;;;;;;13.68;53.67;96475.16;4955679;28;20041;-82
2021/10/30 01:52:53;;;;;;;2.60;2.13;;;;;;;13.69;54.00;96468.09;4985174;28;20033;-82
2021/10/30 01:55:21;;;;;;;4.82;2.30;;;;;;;13.74;53.60;96465.41;4988514;28;20022;-82
2021/10/30 01:57:47;;;;;;;4.78;2.85;;;;;;;13.75;53.85;96471.44;4990744;28;20038;-82
2021/10/30 02:00:12;;;;;;;3.53;1.92;;;;;;;13.82;53.44;96472.63;4990681;28;20034;-82
2021/10/30 02:02:38;;;;;;;5.00;2.35;;;;;;;13.89;53.45;96476.75;4991079;28;20037;-82
2021/10/30 02:05:04;;;;;;;4.80;2.42;;;;;;;13.88;53.56;96469.94;4974305;28;20037;-83
2021/10/30 02:07:30;;;;;;;3.75;2.67;;;;;;;13.89;53.56;96461.81;4990492;28;20045;-82
2021/10/30 02:09:55;;;;;;;5.47;2.15;;;;;;;13.94;53.45;96453.88;4989824;28;20033;-82
2021/10/30 02:12:21;;;;;;;3.53;2.40;;;;;;;13.93;53.72;96457.59;5007223;28;20034;-82
2021/10/30 02:14:46;;;;;;;4.25;2.60;;;;;;;13.91;53.87;96454.44;4990717;28;20037;-82
2021/10/30 02:17:11;;;;;;;3.40;2.40;;;;;;;13.84;53.88;96443.56;4990839;28;20386;-82
2021/10/30 02:19:37;;;;;;;3.83;2.42;;;;;;;13.88;53.85;96446.41;4989946;28;20030;-83
2021/10/30 02:22:03;;;;;;;4.07;2.67;;;;;;;13.89;53.78;96446.13;4957736;28;20061;-82
2021/10/30 02:24:32;;;;;;;7.65;3.33;;;;;;;13.82;53.63;96454.31;4990361;28;20041;-82
2021/10/30 02:26:58;;;;;;;15.70;3.65;;;;;;;13.94;53.58;96448.66;5007206;28;20033;-82
2021/10/30 02:29:24;;;;;;;3.70;2.80;;;;;;;13.99;53.45;96440.72;4958092;28;20026;-83
2021/10/30 02:31:49;;;;;;;9.20;2.88;;;;;;;14.05;53.41;96444.03;4958474;28;20022;-82
2021/10/30 02:34:15;;;;;;;4.70;2.42;;;;;;;14.04;53.65;96443.28;4990253;28;20026;-82
2021/10/30 02:36:40;;;;;;;3.95;3.03;;;;;;;13.92;52.87;96442.94;4990108;28;20468;-82
2021/10/30 02:39:05;;;;;;;2.97;2.40;;;;;;;13.65;53.60;96436.47;4957644;28;20026;-82
2021/10/30 02:41:31;;;;;;;4.07;2.80;;;;;;;13.39;54.35;96427.41;4989487;28;20092;-82
2021/10/30 02:43:56;;;;;;;4.40;2.70;;;;;;;13.24;55.04;96428.34;4974142;28;20057;-81
2021/10/30 02:46:22;;;;;;;4.97;2.65;;;;;;;13.13;54.87;96427.69;4973751;28;20021;-81
2021/10/30 02:48:47;;;;;;;6.88;2.80;;;;;;;12.91;55.71;96413.28;5007532;28;20073;-82
2021/10/30 02:51:12;;;;;;;2.90;2.40;;;;;;;12.80;57.02;96409.22;4973610;28;20105;-81
2021/10/30 02:53:38;;;;;;;3.17;2.00;;;;;;;12.65;57.09;96391.88;4990019;28;20448;-82
2021/10/30 02:56:03;;;;;;;3.45;2.05;;;;;;;12.68;57.09;96395.75;4957768;28;20026;-82
2021/10/30 02:58:29;;;;;;;2.88;2.22;;;;;;;12.74;56.99;96392.81;4993807;28;20074;-82
2021/10/30 03:00:54;;;;;;;3.95;2.10;;;;;;;12.74;57.40;96387.59;4977478;28;20273;-82
2021/10/30 03:03:20;;;;;;;5.68;2.58;;;;;;;12.79;57.33;96383.38;4994486;28;20040;-82
2021/10/30 03:05:45;;;;;;;3.33;2.55;;;;;;;12.79;57.08;96381.53;4977814;28;20034;-81
2021/10/30 03:08:10;;;;;;;2.63;2.38;;;;;;;12.86;57.30;96379.38;4977221;28;20531;-81
2021/10/30 03:10:36;;;;;;;4.22;2.35;;;;;;;12.91;56.98;96381.16;4959509;28;20536;-81
2021/10/30 03:13:01;;;;;;;3.35;2.28;;;;;;;12.92;56.97;96369.66;4993727;28;20030;-81
2021/10/30 03:15:27;;;;;;;3.53;2.35;;;;;;;12.95;56.97;96363.09;4977105;28;20026;-81
2021/10/30 03:17:52;;;;;;;4.82;2.58;;;;;;;12.92;57.29;96357.38;4993532;28;20050;-81
2021/10/30 03:20:18;;;;;;;3.45;2.20;;;;;;;12.90;57.00;96354.25;4993121;28;20534;-81
2021/10/30 03:22:46;;;;;;;3.90;2.15;;;;;;;12.86;57.01;96358.47;4977076;28;20483;-82
2021/10/30 03:25:12;;;;;;;4.15;2.03;;;;;;;12.81;57.46;96350.69;4993085;28;20060;-82
2021/10/30 03:27:37;;;;;;;3.03;2.03;;;;;;;12.83;57.35;96343.34;4993333;28;20111;-82
2021/10/30 03:30:05;;;;;;;4.93;2.38;;;;;;;12.73;57.42;96346.06;5009350;28;20038;-82
2021/10/30 03:32:30;;;;;;;3.85;2.70;;;;;;;12.72;57.61;96341.91;4993425;28;20086;-82
2021/10/30 03:34:56;;;;;;;2.75;2.30;;;;;;;12.70;57.23;96344.81;5009739;28;20440;-81
2021/10/30 03:37:21;;;;;;;3.25;2.72;;;;;;;12.69;57.44;96337.25;5023426;28;20064;-81
2021/10/30 03:39:47;;;;;;;5.63;2.60;;;;;;;12.67;57.64;96329.69;5008798;28;20358;-81
2021/10/30 03:42:12;;;;;;;3.20;2.15;;;;;;;12.69;57.25;96321.56;4979787;28;20485;-82
2021/10/30 03:44:38;;;;;;;3.10;2.20;;;;;;;12.78;57.43;96326.97;4973682;28;20460;-82
2021/10/30 03:47:03;;;;;;;3.80;2.10;;;;;;;12.91;57.26;96321.84;4957400;28;20102;-82
2021/10/30 03:49:31;;;;;;;3.08;2.13;;;;;;;12.87;56.96;96331.28;4984096;28;20026;-82
2021/10/30 03:51:57;;;;;;;5.57;2.60;;;;;;;12.96;56.60;96330.69;4975032;28;20038;-82
2021/10/30 03:54:22;;;;;;;3.92;2.88;;;;;;;12.99;56.09;96330.09;4990709;28;20022;-81
2021/10/30 03:56:48;;;;;;;5.03;2.72;;;;;;;12.97;55.98;96333.03;4992740;28;20054;-81
2021/10/30 03:59:14;;;;;;;3.20;2.22;;;;;;;12.94;56.06;96333.56;4959966;28;20026;-81
2021/10/30 04:01:39;;;;;;;3.42;2.80;;;;;;;12.87;56.58;96333.91;4992520;28;20053;-82
2021/10/30 04:04:04;;;;;;;6.03;2.33;;;;;;;12.88;56.50;96335.44;4976335;28;20037;-81
2021/10/30 04:06:30;;;;;;;3.25;2.55;;;;;;;12.69;56.93;96330.19;4976216;28;20695;-81
2021/10/30 04:08:55;;;;;;;3.65;2.53;;;;;;;12.48;57.50;96329.63;5007856;28;20036;-82
2021/10/30 04:11:20;;;;;;;3.38;2.20;;;;;;;12.41;58.30;96315.34;4976303;28;20050;-82
2021/10/30 04:13:46;;;;;;;4.63;2.72;;;;;;;12.48;58.38;96319.19;4992330;28;20061;-82
2021/10/30 04:16:11;;;;;;;4.70;2.72;;;;;;;12.57;58.81;96303.69;4975989;28;20026;-82
2021/10/30 04:18:37;;;;;;;5.13;2.55;;;;;;;12.78;58.06;96314.66;4976302;28;20042;-82
2021/10/30 04:21:03;;;;;;;4.78;2.30;;;;;;;12.92;57.65;96305.09;4975820;28;20049;-82
2021/10/30 04:23:29;;;;;;;4.40;2.28;;;;;;;13.05;57.17;96298.41;4975850;28;20037;-82
2021/10/30 04:25:54;;;;;;;3.13;2.20;;;;;;;13.16;56.92;96304.28;4975973;28;20088;-82
2021/10/30 04:28:20;;;;;;;3.92;2.33;;;;;;;13.16;57.09;96293.84;4992083;28;20041;-82
2021/10/30 04:30:45;;;;;;;5.20;2.53;;;;;;;12.98;57.96;96292.75;5009148;28;20084;-82
2021/10/30 04:33:14;;;;;;;6.13;2.78;;;;;;;12.74;57.80;96292.78;4975624;28;20323;-82
2021/10/30 04:35:41;;;;;;;5.00;2.60;;;;;;;12.43;58.47;96282.69;4976508;28;20343;-81
2021/10/30 04:38:07;;;;;;;4.63;2.53;;;;;;;12.24;59.12;96284.47;4991831;28;20033;-81
2021/10/30 04:40:32;;;;;;;3.38;2.58;;;;;;;12.29;59.17;96287.03;4991362;28;20034;-81
2021/10/30 04:42:58;;;;;;;4.03;2.47;;;;;;;12.39;59.08;96278.28;4975447;28;20488;-81
2021/10/30 04:45:23;;;;;;;7.10;4.45;;;;;;;12.33;59.33;96278.34;4975567;28;20042;-81
2021/10/30 04:47:49;;;;;;;8.63;5.32;;;;;;;12.26;59.38;96271.91;4975361;28;20034;-81
2021/10/30 04:50:14;;;;;;;6.32;5.20;;;;;;;12.32;59.13;96273.41;4974748;28;20037;-81
2021/10/30 04:52:40;;;;;;;6.20;4.63;;;;;;;12.32;59.41;96265.56;4973744;28;20029;-81
2021/10/30 04:55:06;;;;;;;5.10;4.13;;;;;;;12.33;59.54;96267.13;4988735;28;20034;-81
2021/10/30 04:57:31;;;;;;;7.22;3.60;;;;;;;12.35;58.83;96267.63;4972211;28;20448;-81
2021/10/30 04:59:56;;;;;;;6.00;3.40;;;;;;;12.32;59.17;96268.97;4987433;28;20057;-81
2021/10/30 05:02:22;;;;;;;4.78;3.13;;;;;;;12.26;59.19;96262.25;4987468;28;20038;-81
2021/10/30 05:04:47;;;;;;;5.82;3.83;;;;;;;12.26;59.53;96257.03;4976809;28;20030;-81
2021/10/30 05:07:13;;;;;;;4.35;3.15;;;;;;;12.25;59.05;96259.91;4974024;28;20030;-81
2021/10/30 05:09:38;;;;;;;6.13;3.53;;;;;;;12.25;59.73;96260.69;4957520;28;20072;-81
2021/10/30 05:12:04;;;;;;;4.72;3.85;;;;;;;12.25;59.89;96252.88;4973921;28;20088;-81
2021/10/30 05:14:29;;;;;;;6.72;3.85;;;;;;;12.23;60.24;96256.81;4973770;28;20045;-81
2021/10/30 05:16:55;;;;;;;5.57;3.38;;;;;;;12.18;60.15;96237.53;4990180;28;20049;-81
2021/10/30 05:19:21;;;;;;;5.40;3.20;;;;;;;12.24;60.54;96248.69;4973390;28;20046;-81
2021/10/30 05:21:46;;;;;;;5.28;3.58;;;;;;;12.21;60.41;96251.09;4989105;28;20041;-81
2021/10/30 05:24:12;;;;;;;4.97;3.38;;;;;;;12.17;60.29;96246.41;4973566;28;20033;-81
2021/10/30 05:26:38;;;;;;;6.10;3.22;;;;;;;12.19;60.43;96246.13;4974022;28;20239;-81
2021/10/30 05:29:03;;;;;;;4.03;3.08;;;;;;;12.20;60.48;96242.50;4973052;28;20087;-81
2021/10/30 05:31:28;;;;;;;5.10;3.30;;;;;;;12.20;60.44;96239.06;4970233;28;20440;-81
2021/10/30 05:33:54;;;;;;;4.55;2.90;;;;;;;12.13;60.55;96232.38;4939583;28;20150;-81
2021/10/30 05:36:23;;;;;;;4.40;2.92;;;;;;;12.16;60.46;96231.03;4939455;28;20125;-81
2021/10/30 05:38:51;;;;;;;5.57;3.00;;;;;;;12.13;60.41;96223.75;5017035;28;20491;-81
2021/10/30 05:41:18;;;;;;;5.05;3.67;;;;;;;12.09;60.53;96223.53;4973675;28;20030;-81
2021/10/30 05:43:43;;;;;;;8.15;4.18;;;;;;;12.11;60.50;96212.81;4990877;28;20041;-81
2021/10/30 05:46:09;;;;;;;5.30;3.53;;;;;;;12.10;60.45;96206.84;4956514;28;20030;-81
2021/10/30 05:48:35;;;;;;;5.45;3.30;;;;;;;12.10;60.35;96206.84;4971470;28;20488;-81
2021/10/30 05:51:01;;;;;;;6.35;3.83;;;;;;;12.07;60.62;96201.41;4970682;28;20065;-81
2021/10/30 05:53:26;;;;;;;5.45;3.40;;;;;;;12.02;60.80;96202.22;4965052;28;20519;-81
2021/10/30 05:55:52;;;;;;;5.32;3.10;;;;;;;11.98;61.21;96193.41;4974445;28;20030;-81
2021/10/30 05:58:17;;;;;;;6.75;3.83;;;;;;;11.96;60.92;96198.09;4958352;28;20041;-81
2021/10/30 06:00:42;;;;;;;6.05;4.40;;;;;;;11.86;61.54;96187.72;4957817;28;20511;-81
2021/10/30 06:03:08;;;;;;;7.15;4.70;;;;;;;11.80;61.27;96193.00;4971811;28;20026;-81
2021/10/30 06:05:33;;;;;;;6.95;4.70;;;;;;;11.68;61.36;96202.25;4980626;28;20062;-81
2021/10/30 06:07:59;;;;;;;6.30;4.38;;;;;;;11.75;60.94;96207.94;4972439;28;20052;-81
2021/10/30 06:10:26;;;;;;;7.53;5.38;;;;;;;11.76;61.17;96210.25;4988350;28;20059;-81
2021/10/30 06:12:51;;;;;;;8.05;5.03;;;;;;;11.77;60.90;96208.41;4955378;28;20240;-81
2021/10/30 06:15:16;;;;;;;7.38;5.25;;;;;;;11.79;61.01;96227.19;4971056;28;20080;-81
2021/10/30 06:17:42;;;;;;;5.80;4.75;;;;;;;11.75;61.57;96211.31;4970454;28;20058;-81
2021/10/30 06:20:08;;;;;;;5.90;4.20;;;;;;;11.77;61.21;96222.25;4970503;28;20113;-81
2021/10/30 06:22:34;;;;;;;5.18;4.30;;;;;;;11.64;61.80;96215.06;4970729;28;20034;-81
2021/10/30 06:24:59;;;;;;;7.60;4.30;;;;;;;11.60;61.69;96214.03;4954786;28;20081;-81
2021/10/30 06:27:25;;;;;;;6.10;4.10;;;;;;;11.60;61.94;96224.47;4973808;28;20483;-81
2021/10/30 06:29:50;;;;;;;6.57;4.07;;;;;;;11.54;62.18;96207.34;4973982;28;20034;-81
2021/10/30 06:32:16;;;;;;;6.25;4.03;;;;;;;11.56;62.11;96215.66;4976109;28;20136;-81
2021/10/30 06:34:41;;;;;;;8.65;4.65;;;;;;;11.57;61.86;96219.81;4994032;28;20033;-81
2021/10/30 06:37:07;;;;;;;6.95;4.65;;;;;;;11.56;62.24;96218.25;4978032;28;20551;-81
2021/10/30 06:39:32;;;;;;;8.70;4.78;;;;;;;11.50;62.15;96225.34;4993875;28;20111;-81
2021/10/30 06:41:58;;;;;;;7.10;5.68;;;;;;;11.38;62.35;96217.88;4977709;28;20026;-81
2021/10/30 06:44:23;;;;;;;9.32;4.43;;;;;;;11.32;62.33;96216.34;4976639;28;20100;-81
2021/10/30 06:46:50;;;;;;;6.50;4.40;;;;;;;11.42;62.39;96215.50;4977637;28;20335;-81
2021/10/30 06:49:16;;;;;;;9.00;6.40;;;;;;;11.42;62.32;96218.13;4999796;28;20049;-81
2021/10/30 06:51:42;;;;;;;9.80;7.20;;;;;;;11.47;61.88;96235.56;5010100;28;20033;-81
2021/10/30 06:54:10;;;;;;;6.40;5.72;;;;;;;11.50;61.73;96240.19;4983371;28;20030;-81
2021/10/30 06:56:37;;;;;;;10.68;6.20;;;;;;;11.48;61.55;96242.31;4993641;28;20491;-81
2021/10/30 06:59:04;;;;;;;11.10;5.80;;;;;;;11.52;61.80;96243.34;4993421;28;20034;-81
2021/10/30 07:01:29;;;;;;;9.18;5.28;;;;;;;11.49;62.09;96249.09;4977316;28;20028;-81
2021/10/30 07:03:54;;;;;;;7.50;5.55;;;;;;;11.50;62.37;96250.63;4993582;28;20475;-81
2021/10/30 07:06:20;;;;;;;8.02;5.00;;;;;;;11.53;61.66;96250.09;4961556;28;20034;-82
2021/10/30 07:08:45;;;;;;;7.15;5.25;;;;;;;11.45;61.85;96251.47;4977345;28;20038;-82
2021/10/30 07:11:11;;;;;;;9.18;6.45;;;;;;;11.57;61.25;96272.75;4958798;28;20538;-81
2021/10/30 07:13:36;;;;;;;7.75;5.82;;;;;;;11.58;61.10;96274.31;4990864;28;20030;-81
2021/10/30 07:16:01;;;;;;;7.22;5.07;;;;;;;11.60;60.98;96282.63;4984019;28;20080;-81
2021/10/30 07:18:27;;;;;;;7.45;5.47;;;;;;;11.61;60.77;96286.00;4967504;28;20041;-81
2021/10/30 07:20:52;;;;;;;7.57;5.50;;;;;;;11.68;60.75;96291.69;4968221;28;20707;-81
2021/10/30 07:23:17;;;;;;;8.60;5.68;;;;;;;11.66;60.81;96298.25;4982395;28;20018;-81
2021/10/30 07:25:43;;;;;;;7.10;5.57;;;;;;;11.71;60.55;96301.56;4978990;28;20954;-81
2021/10/30 07:28:08;;;;;;;8.02;5.20;;;;;;;11.72;60.79;96305.75;5011337;28;20120;-81
2021/10/30 07:30:34;;;;;;;8.32;5.50;;;;;;;11.75;60.52;96299.97;4971499;28;20049;-81
2021/10/30 07:32:59;;;;;;;9.23;6.20;;;;;;;11.69;60.88;96303.69;4983999;28;20171;-81
2021/10/30 07:35:24;;;;;;;10.38;6.60;;;;;;;11.65;61.09;96307.09;4966652;28;20503;-81
2021/10/30 07:37:52;;;;;;;8.93;6.63;;;;;;;11.69;60.59;96306.28;4988037;28;20026;-81
2021/10/30 07:40:18;;;;;;;11.32;7.40;;;;;;;11.69;61.26;96314.13;4997301;28;20508;-81
2021/10/30 07:42:44;;;;;;;8.68;6.57;;;;;;;11.67;61.21;96318.81;4992554;28;20033;-81
2021/10/30 07:45:10;;;;;;;11.35;6.60;;;;;;;11.64;61.45;96316.75;4985730;28;20045;-81
2021/10/30 07:47:37;;;;;;;9.23;6.70;;;;;;;11.60;62.08;96311.31;4958048;28;20085;-81
2021/10/30 07:50:03;;;;;;;11.02;7.63;;;;;;;11.51;62.57;96312.16;4992516;28;20065;-81
2021/10/30 07:52:32;;;;;;;11.57;6.68;;;;;;;11.15;62.88;96301.94;4978430;28;20040;-80
2021/10/30 07:54:57;;;;;;;11.23;7.30;;;;;;;11.16;63.21;96290.47;4959195;28;20032;-81
2021/10/30 07:57:23;;;;;;;9.80;7.47;;;;;;;10.97;63.98;96290.31;4955600;28;20030;-80
2021/10/30 07:59:51;;;;;;;13.35;8.80;;;;;;;10.82;64.74;96285.97;5002474;28;20132;-81
2021/10/30 08:02:18;;;;;;;11.55;7.45;;;;;;;10.84;64.32;96273.44;4966247;28;20033;-81
2021/10/30 08:04:44;;;;;;;13.20;8.27;;;;;;;10.91;64.20;96291.38;4998330;28;20141;-81
2021/10/30 08:07:09;;;;;;;11.10;7.70;;;;;;;10.64;64.98;96288.13;4987170;28;20108;-80
2021/10/30 08:09:35;;;;;;;11.65;7.65;;;;;;;10.53;65.53;96285.81;4976572;28;20056;-81
2021/10/30 08:12:01;;;;;;;11.27;7.40;;;;;;;10.61;64.74;96285.28;4982872;28;20065;-80
2021/10/30 08:14:26;;;;;;;10.65;7.65;;;;;;;10.83;65.08;96282.28;4992645;28;20522;-80
2021/10/30 08:16:52;;;;;;;10.60;7.82;;;;;;;10.82;64.30;96296.38;4991984;28;20022;-81
2021/10/30 08:19:17;;;;;;;12.43;8.93;;;;;;;10.66;65.16;96278.22;4976108;28;20030;-81
2021/10/30 08:21:43;;;;;;;12.02;8.50;;;;;;;10.66;65.17;96270.41;4987131;28;20041;-81
2021/10/30 08:24:08;;;;;;;11.63;7.93;;;;;;;10.83;64.59;96274.47;4976752;28;20391;-81
2021/10/30 08:26:34;;;;;;;12.85;8.70;;;;;;;10.75;64.74;96272.47;4987264;28;20092;-81
2021/10/30 08:29:00;;;;;;;11.18;7.55;;;;;;;10.99;63.68;96283.78;4957010;28;20034;-81
2021/10/30 08:31:25;;;;;;;13.82;8.30;;;;;;;10.97;64.02;96283.28;4944077;28;20481;-81
2021/10/30 08:33:52;;;;;;;12.07;8.13;;;;;;;10.98;63.98;96271.03;4957249;28;20034;-81
2021/10/30 08:36:18;;;;;;;11.68;7.57;;;;;;;10.87;64.21;96296.34;4991044;28;20036;-81
2021/10/30 08:38:43;;;;;;;10.85;8.05;;;;;;;10.99;64.59;96288.22;4989022;28;20022;-81
2021/10/30 08:41:09;;;;;;;10.45;7.35;;;;;;;11.07;63.80;96290.28;4975660;28;20116;-81
2021/10/30 08:43:34;;;;;;;9.75;7.78;;;;;;;11.20;63.70;96296.69;4992820;28;20037;-81
2021/10/30 08:46:00;;;;;;;9.68;6.80;;;;;;;11.30;63.13;96301.84;4992444;28;20545;-81
2021/10/30 08:48:29;;;;;;;11.45;7.85;;;;;;;11.16;63.89;96272.25;4975795;28;20165;-81
2021/10/30 08:50:55;;;;;;;11.65;8.30;;;;;;;11.33;63.22;96303.94;4975867;28;20058;-82
2021/10/30 08:53:21;;;;;;;11.25;7.90;;;;;;;11.28;63.63;96280.50;4981439;28;20068;-81
2021/10/30 08:55:51;;;;;;;10.65;7.97;;;;;;;11.31;63.41;96276.56;4956417;28;20145;-81
2021/10/30 08:58:17;;;;;;;12.45;7.82;;;;;;;11.49;62.88;96283.75;4978958;28;20093;-82
2021/10/30 09:00:48;;;;;;;12.15;8.18;;;;;;;11.41;64.16;96292.94;4991912;28;20563;-82
2021/10/30 09:03:14;;;;;;;11.63;8.40;;;;;;;11.47;64.27;96287.69;4992002;28;20034;-81
2021/10/30 09:05:42;;;;;;;10.43;6.78;;;;;;;11.50;64.05;96268.88;4992147;28;20037;-81
2021/10/30 09:08:08;;;;;;;10.73;7.55;;;;;;;11.51;64.38;96257.41;4975803;28;20079;-80
2021/10/30 09:10:40;;;;;;;11.38;7.95;;;;;;;11.34;64.72;96250.75;4956550;28;20053;-80
2021/10/30 09:13:10;;;;;;;10.48;7.75;;;;;;;11.43;64.26;96249.13;4972293;28;20026;-79
2021/10/30 09:15:53;;;;;;;10.38;8.07;;;;;;;11.46;64.05;96254.84;4956769;28;20430;-79
2021/10/30 09:18:19;;;;;;;11.98;7.95;;;;;;;11.69;64.41;96263.81;4958827;28;20033;-79
2021/10/30 09:20:48;;;;;;;12.27;8.30;;;;;;;11.70;64.72;96260.88;4989756;28;20041;-78
2021/10/30 09:23:20;;;;;;;12.23;8.07;;;;;;;11.72;65.03;96258.00;4990975;28;20072;-79
2021/10/30 09:26:09;;;;;;;12.30;8.50;;;;;;;11.44;66.19;96248.06;5003723;28;20038;-78
2021/10/30 09:28:45;;;;;;;15.05;10.48;;;;;;;11.49;65.84;96233.44;4993333;28;20068;-78
2021/10/30 09:31:12;;;;;;;12.60;9.25;;;;;;;11.65;65.46;96232.25;5009401;28;20557;-78
2021/10/30 09:33:59;;;;;;;12.18;8.18;;;;;;;11.37;66.75;96226.75;4972107;28;20062;-78
2021/10/30 09:36:30;;;;;;;14.90;11.25;;;;;;;11.50;66.13;96224.56;4956457;28;20700;-78
2021/10/30 09:39:00;;;;;;;13.98;12.43;;;;;;;11.63;65.61;96221.31;4962045;28;20081;-78
2021/10/30 09:41:32;;;;;;;18.10;11.88;;;;;;;11.64;65.88;96230.72;4974642;28;20044;-78
2021/10/30 09:44:00;;;;;;;10.75;8.77;;;;;;;11.87;65.44;96229.19;4975355;28;20096;-78
2021/10/30 09:46:30;;;;;;;13.32;9.35;;;;;;;11.83;65.29;96232.66;4974898;28;20030;-78
2021/10/30 09:48:58;;;;;;;11.05;8.43;;;;;;;11.96;65.49;96229.41;5000359;28;20113;-78
2021/10/30 09:51:37;;;;;;;15.00;8.80;;;;;;;11.87;65.83;96234.41;4971684;28;20050;-78
2021/10/30 09:54:05;;;;;;;11.20;7.85;;;;;;;12.08;65.23;96236.84;4982552;28;21760;-78
2021/10/30 09:56:41;;;;;;;12.55;8.48;;;;;;;11.84;65.94;96231.56;4972567;28;20132;-78
2021/10/30 09:59:13;;;;;;;12.18;8.23;;;;;;;11.97;65.72;96228.34;5008478;28;20530;-78
2021/10/30 10:01:39;;;;;;;14.23;10.70;;;;;;;12.13;65.45;96229.75;4971345;28;20034;-78
2021/10/30 10:04:05;;;;;;;14.27;9.32;;;;;;;12.14;65.96;96231.31;4987637;28;20100;-78
2021/10/30 10:06:34;;;;;;;11.80;8.10;;;;;;;12.14;65.57;96233.91;4971046;28;20054;-78
2021/10/30 10:09:01;;;;;;;11.38;7.97;;;;;;;12.34;65.57;96237.38;4987908;28;20066;-78
2021/10/30 10:11:27;;;;;;;10.25;7.47;;;;;;;12.42;65.92;96247.19;4957322;28;20125;-79
2021/10/30 10:13:53;;;;;;;11.13;8.20;;;;;;;12.50;65.84;96245.81;4949659;28;20590;-79
2021/10/30 10:16:20;;;;;;;11.25;8.30;;;;;;;12.61;65.93;96256.91;4974674;28;20029;-79
2021/10/30 10:18:47;;;;;;;11.20;8.70;;;;;;;12.63;65.57;96252.97;5005479;28;20096;-79
2021/10/30 10:21:16;;;;;;;10.43;8.63;;;;;;;12.62;65.73;96250.63;4990910;28;20102;-78
2021/10/30 10:23:44;;;;;;;13.35;9.13;;;;;;;12.71;65.85;96256.78;4991342;28;20038;-79
2021/10/30 10:26:11;;;;;;;9.98;8.30;;;;;;;12.77;66.38;96253.06;4991221;28;20026;-79
2021/10/30 10:28:37;;;;;;;12.43;8.38;;;;;;;12.85;65.58;96262.88;4990765;28;20026;-79
2021/10/30 10:31:24;;;;;;;10.80;8.18;;;;;;;12.59;65.96;96259.00;4990754;28;20480;-79
2021/10/30 10:34:11;;;;;;;11.32;8.38;;;;;;;12.63;65.93;96260.78;4991300;28;20085;-79
2021/10/30 10:36:37;;;;;;;13.18;8.25;;;;;;;12.85;65.75;96249.81;4990920;28;20038;-79
2021/10/30 10:39:03;;;;;;;10.45;7.70;;;;;;;12.94;65.81;96252.56;4990796;28;20034;-80
2021/10/30 10:41:37;;;;;;;9.40;6.85;;;;;;;12.78;66.09;96243.38;4990698;28;20342;-79
2021/10/30 10:44:16;;;;;;;9.25;7.13;;;;;;;13.00;66.23;96255.88;5008056;28;20038;-80
2021/10/30 10:46:49;;;;;;;10.18;7.47;;;;;;;12.95;66.27;96250.72;4970707;28;20042;-80
2021/10/30 10:49:35;;;;;;;8.43;6.40;;;;;;;13.03;66.43;96250.88;4990205;28;20080;-80
2021/10/30 10:52:14;;;;;;;9.90;7.75;;;;;;;13.17;66.07;96243.09;4974389;28;20061;-80
2021/10/30 10:54:52;;;;;;;9.00;7.22;;;;;;;13.00;66.21;96232.38;5000038;28;20191;-80
2021/10/30 10:57:34;;;;;;;10.50;6.70;;;;;;;13.04;67.16;96220.28;4990311;28;20033;-81
2021/10/30 11:00:15;;;;;;;8.35;6.15;;;;;;;13.10;67.43;96221.78;5006699;28;20131;-80
2021/10/30 11:02:50;;;;;;;8.80;6.20;;;;;;;13.15;67.87;96213.84;4996864;28;20062;-80
2021/10/30 11:05:22;;;;;;;8.23;6.18;;;;;;;13.51;67.16;96210.72;4987272;28;20106;-80
2021/10/30 11:07:50;;;;;;;8.35;6.25;;;;;;;13.56;66.64;96222.94;4980365;28;20559;-80
2021/10/30 11:10:31;;;;;;;9.60;6.30;;;;;;;13.49;67.05;96208.38;4980536;28;20402;-80
2021/10/30 11:13:02;;;;;;;9.73;6.50;;;;;;;13.73;66.67;96211.94;4973900;28;20044;-80
2021/10/30 11:15:39;;;;;;;8.40;6.53;;;;;;;13.63;67.06;96208.44;5008047;28;20092;-80
2021/10/30 11:20:33;;;;;;;7.55;5.82;;;;;;;13.96;66.81;96229.31;4977693;28;20116;-80
2021/10/30 11:23:01;;;;;;;8.77;5.53;;;;;;;14.00;66.69;96224.28;5011442;28;20441;-80
2021/10/30 11:25:29;;;;;;;9.73;5.70;;;;;;;14.10;65.94;96225.94;4994141;28;20025;-80
2021/10/30 11:27:55;;;;;;;8.13;5.68;;;;;;;14.22;66.02;96226.22;4977678;28;20083;-80
2021/10/30 11:30:31;;;;;;;6.38;5.00;;;;;;;13.95;66.16;96240.06;4960853;28;20241;-80
2021/10/30 11:33:30;;;;;;;7.93;4.68;;;;;;;13.84;66.19;96235.00;5001328;28;20030;-80
2021/10/30 11:36:03;;;;;;;7.68;5.45;;;;;;;14.04;66.07;96238.34;4984529;28;20076;-80